Time;durP1;ratioP1;P1;durP2;ratioP2;P2;SDS_P1;SDS_P2;PMS_P1;PMS_P2;Temp;Humidity;BMP_temperature;BMP_pressure;BME280_temperature;BME280_humidity;BME280_pressure;Samples;Min_cycle;Max_cycle;Signal;HPM_P1;HPM_P2
2022/05/26 00:00:26;;;;;;;0.00;0.00;;;18.60;67.30;;;;;;4113674;28;20152;-73
2022/05/26 00:02:51;;;;;;;0.00;0.00;;;18.50;67.10;;;;;;4113741;28;20047;-70
2022/05/26 00:05:13;;;;;;;0.00;0.00;;;18.50;67.30;;;;;;4114496;28;20038;-72
2022/05/26 00:07:37;;;;;;;0.00;0.00;;;18.50;67.20;;;;;;4114057;28;20142;-71
2022/05/26 00:10:00;;;;;;;0.00;0.00;;;18.50;67.40;;;;;;4100517;28;20051;-70
2022/05/26 00:12:32;;;;;;;0.00;0.00;;;18.50;67.70;;;;;;4114233;28;20549;-69
2022/05/26 00:15:01;;;;;;;0.00;0.00;;;18.50;68.10;;;;;;4114720;28;20519;-71
2022/05/26 00:17:30;;;;;;;0.00;0.00;;;18.50;68.10;;;;;;4100490;28;20158;-71
2022/05/26 00:19:59;;;;;;;0.00;0.00;;;18.40;68.00;;;;;;4114341;28;20047;-69
2022/05/26 00:22:28;;;;;;;0.00;0.00;;;18.40;68.10;;;;;;4113751;28;20461;-72
2022/05/26 00:24:55;;;;;;;0.00;0.00;;;18.40;68.00;;;;;;4114463;28;20411;-70
2022/05/26 00:27:34;;;;;;;0.00;0.00;;;18.50;67.90;;;;;;4114330;28;20058;-70
2022/05/26 00:29:56;;;;;;;0.00;0.00;;;18.50;67.90;;;;;;4113256;28;20455;-69
2022/05/26 00:32:25;;;;;;;0.00;0.00;;;18.40;68.00;;;;;;4101159;28;20104;-72
2022/05/26 00:34:47;;;;;;;0.00;0.00;;;18.40;68.10;;;;;;4140490;28;20057;-75
2022/05/26 00:37:15;;;;;;;0.00;0.00;;;18.40;68.10;;;;;;4114278;28;20488;-69
2022/05/26 00:39:52;;;;;;;0.00;0.00;;;18.40;68.10;;;;;;4114380;28;20059;-71
2022/05/26 00:42:18;;;;;;;0.00;0.00;;;18.30;68.30;;;;;;4100511;28;20138;-71
2022/05/26 00:44:43;;;;;;;0.00;0.00;;;18.40;68.30;;;;;;4100486;28;20389;-70
2022/05/26 00:47:21;;;;;;;0.00;0.00;;;18.30;68.40;;;;;;4114163;28;20058;-73
2022/05/26 00:49:50;;;;;;;0.00;0.00;;;18.40;68.70;;;;;;4113294;28;20074;-71
2022/05/26 00:52:46;;;;;;;0.00;0.00;;;18.20;69.20;;;;;;4095118;28;20064;-73
2022/05/26 00:55:26;;;;;;;0.00;0.00;;;17.90;70.50;;;;;;4113011;28;20047;-71
2022/05/26 00:58:29;;;;;;;0.00;0.00;;;17.90;71.50;;;;;;4113189;28;20061;-72
2022/05/26 01:00:57;;;;;;;0.00;0.00;;;17.90;71.60;;;;;;4149496;28;20089;-71
2022/05/26 01:03:27;;;;;;;0.00;0.00;;;17.90;72.20;;;;;;4102640;28;20165;-72
2022/05/26 01:06:03;;;;;;;0.00;0.00;;;17.90;73.00;;;;;;4115788;28;20122;-71
2022/05/26 01:08:55;;;;;;;0.00;0.00;;;17.90;74.20;;;;;;4102497;28;20126;-74
2022/05/26 01:11:19;;;;;;;0.00;0.00;;;18.00;75.10;;;;;;4129373;28;20063;-71
2022/05/26 01:13:58;;;;;;;0.00;0.00;;;17.90;75.10;;;;;;4143096;28;20054;-72
2022/05/26 01:16:37;;;;;;;0.00;0.00;;;18.00;74.90;;;;;;4116489;28;20047;-71
2022/05/26 01:19:45;;;;;;;0.00;0.00;;;18.10;75.00;;;;;;4115696;28;20389;-72
2022/05/26 01:22:27;;;;;;;0.00;0.00;;;18.00;74.60;;;;;;4121618;28;20062;-70
2022/05/26 01:25:13;;;;;;;0.00;0.00;;;18.00;74.80;;;;;;4116494;28;20100;-72
2022/05/26 01:27:41;;;;;;;0.00;0.00;;;18.10;74.60;;;;;;4115359;28;20059;-71
2022/05/26 01:30:41;;;;;;;0.00;0.00;;;18.10;74.50;;;;;;4115762;28;20062;-72
2022/05/26 01:33:19;;;;;;;0.00;0.00;;;18.10;74.60;;;;;;4115945;28;20129;-73
2022/05/26 01:35:52;;;;;;;0.00;0.00;;;18.10;74.70;;;;;;4102043;28;20051;-72
2022/05/26 01:38:33;;;;;;;0.00;0.00;;;18.10;74.50;;;;;;4115774;28;20058;-73
2022/05/26 01:41:34;;;;;;;0.00;0.00;;;18.10;74.70;;;;;;4102082;28;20069;-74
2022/05/26 01:44:10;;;;;;;0.00;0.00;;;18.00;74.30;;;;;;4115992;28;20469;-70
2022/05/26 01:46:38;;;;;;;0.00;0.00;;;17.90;74.30;;;;;;4115453;28;20047;-69
2022/05/26 01:49:10;;;;;;;0.00;0.00;;;18.00;74.70;;;;;;4129077;28;20095;-72
2022/05/26 01:52:07;;;;;;;0.00;0.00;;;18.00;74.60;;;;;;4116222;28;20470;-71
2022/05/26 01:54:49;;;;;;;0.00;0.00;;;17.90;74.60;;;;;;4104409;28;20051;-71
2022/05/26 01:57:14;;;;;;;0.00;0.00;;;17.80;75.00;;;;;;4104331;28;20058;-72
2022/05/26 01:59:47;;;;;;;0.00;0.00;;;17.80;75.30;;;;;;4104594;28;20051;-70
2022/05/26 02:02:18;;;;;;;0.00;0.00;;;17.80;75.60;;;;;;4117662;28;20436;-71
2022/05/26 02:04:47;;;;;;;0.00;0.00;;;17.80;75.90;;;;;;4117869;28;20116;-72
2022/05/26 02:07:42;;;;;;;0.00;0.00;;;17.80;76.20;;;;;;4131018;28;20120;-72
2022/05/26 02:10:14;;;;;;;0.00;0.00;;;17.80;76.50;;;;;;4117709;28;20255;-72
2022/05/26 02:13:05;;;;;;;0.00;0.00;;;17.50;77.60;;;;;;4117865;28;20054;-71
2022/05/26 02:15:47;;;;;;;0.00;0.00;;;17.50;77.70;;;;;;4104247;28;20047;-70
2022/05/26 02:18:12;;;;;;;0.00;0.00;;;17.40;77.70;;;;;;4117210;28;20130;-75
2022/05/26 02:20:40;;;;;;;0.00;0.00;;;17.30;77.80;;;;;;4117552;28;20085;-74
2022/05/26 02:23:12;;;;;;;0.00;0.00;;;17.30;78.30;;;;;;4117436;28;20051;-72
2022/05/26 02:25:40;;;;;;;0.00;0.00;;;17.30;78.20;;;;;;4118403;28;20544;-71
2022/05/26 02:28:05;;;;;;;0.00;0.00;;;17.30;78.10;;;;;;4131024;28;20061;-71
2022/05/26 02:30:36;;;;;;;0.00;0.00;;;17.30;78.00;;;;;;4117470;28;20055;-71
2022/05/26 02:32:59;;;;;;;0.00;0.00;;;17.40;77.90;;;;;;4104241;28;20059;-72
2022/05/26 02:35:33;;;;;;;0.00;0.00;;;17.50;77.60;;;;;;4117312;28;20055;-72
2022/05/26 02:38:03;;;;;;;0.00;0.00;;;17.60;77.40;;;;;;4117433;28;20043;-72
2022/05/26 02:40:25;;;;;;;0.00;0.00;;;17.40;77.70;;;;;;4103903;28;20055;-71
2022/05/26 02:43:07;;;;;;;0.00;0.00;;;17.40;78.20;;;;;;4131103;28;20042;-70
2022/05/26 02:45:42;;;;;;;0.00;0.00;;;17.40;78.20;;;;;;4117157;28;20124;-70
2022/05/26 02:48:31;;;;;;;0.00;0.00;;;17.50;78.10;;;;;;4117479;28;20066;-71
2022/05/26 02:51:14;;;;;;;0.00;0.00;;;17.60;77.90;;;;;;4090210;28;20167;-70
2022/05/26 02:53:48;;;;;;;0.00;0.00;;;17.60;77.80;;;;;;4103907;28;20043;-70
2022/05/26 02:56:37;;;;;;;0.00;0.00;;;17.70;77.80;;;;;;4117007;28;20043;-70
2022/05/26 02:59:19;;;;;;;0.00;0.00;;;17.60;78.60;;;;;;4130644;28;20566;-74
2022/05/26 03:01:59;;;;;;;0.00;0.00;;;17.70;78.20;;;;;;4104848;28;20051;-70
2022/05/26 03:04:43;;;;;;;0.00;0.00;;;17.70;78.40;;;;;;4116689;28;20065;-72
2022/05/26 03:07:11;;;;;;;;;;;17.60;78.80;;;;;;4117430;28;20421;-74
2022/05/26 03:09:35;;;;;;;0.00;0.00;;;17.70;78.70;;;;;;4116947;28;20370;-71
2022/05/26 03:11:59;;;;;;;0.00;0.00;;;17.70;78.90;;;;;;4116998;28;20489;-74
2022/05/26 03:14:27;;;;;;;0.00;0.00;;;17.70;79.00;;;;;;4103867;28;20101;-73
2022/05/26 03:16:54;;;;;;;0.00;0.00;;;17.60;80.20;;;;;;4130601;28;20050;-71
2022/05/26 03:19:19;;;;;;;0.00;0.00;;;17.50;80.40;;;;;;4090417;28;20117;-72
2022/05/26 03:21:42;;;;;;;0.00;0.00;;;17.60;80.40;;;;;;4116972;28;20658;-71
2022/05/26 03:24:04;;;;;;;0.00;0.00;;;17.70;80.10;;;;;;4186628;28;20493;-72
2022/05/26 03:26:26;;;;;;;0.00;0.00;;;17.70;80.30;;;;;;4117069;28;20058;-73
2022/05/26 03:28:48;;;;;;;0.00;0.00;;;17.60;80.50;;;;;;4103016;28;20078;-71
2022/05/26 03:31:13;;;;;;;0.00;0.00;;;17.50;80.90;;;;;;4116660;28;20128;-70
2022/05/26 03:42:06;;;;;;;0.00;0.00;;;17.70;80.90;;;;;;4143896;28;20049;-72
2022/05/26 03:44:30;;;;;;;0.00;0.00;;;17.70;80.60;;;;;;4116586;28;20063;-70
2022/05/26 03:46:54;;;;;;;0.00;0.00;;;17.70;80.90;;;;;;4116809;28;20454;-72
2022/05/26 03:49:19;;;;;;;0.00;0.00;;;17.70;80.90;;;;;;4103362;28;20113;-74
2022/05/26 03:51:44;;;;;;;0.00;0.00;;;17.80;80.90;;;;;;4103370;28;20110;-71
2022/05/26 03:54:08;;;;;;;0.00;0.00;;;17.80;80.90;;;;;;4116246;28;20055;-71
2022/05/26 03:56:33;;;;;;;0.00;0.00;;;17.80;80.60;;;;;;4116501;28;20050;-71
2022/05/26 03:58:55;;;;;;;0.00;0.00;;;17.60;80.00;;;;;;4116261;28;20394;-71
2022/05/26 04:01:20;;;;;;;0.00;0.00;;;17.20;81.00;;;;;;4129896;28;20540;-72
2022/05/26 04:03:44;;;;;;;0.00;0.00;;;17.10;81.50;;;;;;4116186;28;20039;-73
2022/05/26 04:06:09;;;;;;;0.00;0.00;;;17.10;81.10;;;;;;4103218;28;20051;-71
2022/05/26 04:08:33;;;;;;;0.00;0.00;;;17.30;80.60;;;;;;4116222;28;20046;-73
2022/05/26 04:11:00;;;;;;;0.00;0.00;;;17.40;80.50;;;;;;4129524;28;20046;-71
2022/05/26 04:13:27;;;;;;;0.00;0.00;;;17.40;80.40;;;;;;4102796;28;20708;-71
2022/05/26 04:15:49;;;;;;;0.00;0.00;;;17.50;80.30;;;;;;4116204;28;20046;-71
2022/05/26 04:18:11;;;;;;;0.00;0.00;;;17.50;80.20;;;;;;4116443;28;20050;-70
2022/05/26 04:20:33;;;;;;;0.00;0.00;;;17.50;80.40;;;;;;4115913;28;20112;-70
2022/05/26 04:22:55;;;;;;;0.00;0.00;;;17.50;80.40;;;;;;4116200;28;20058;-73
2022/05/26 04:25:22;;;;;;;0.00;0.00;;;17.50;80.90;;;;;;4102667;28;20051;-73
2022/05/26 04:27:44;;;;;;;0.00;0.00;;;17.60;80.90;;;;;;4116334;28;20051;-71
2022/05/26 04:30:08;;;;;;;0.00;0.00;;;17.70;80.60;;;;;;4102615;28;20062;-70
2022/05/26 04:32:30;;;;;;;0.00;0.00;;;17.70;80.30;;;;;;4129990;28;20046;-69
2022/05/26 04:34:53;;;;;;;0.00;0.00;;;17.70;80.30;;;;;;4116711;28;20440;-73
2022/05/26 04:37:16;;;;;;;0.00;0.00;;;17.80;80.40;;;;;;4129907;28;20104;-70
2022/05/26 04:39:38;;;;;;;0.00;0.00;;;17.80;80.20;;;;;;4116647;28;20430;-71
2022/05/26 04:42:02;;;;;;;0.00;0.00;;;17.90;80.20;;;;;;4146531;28;20057;-71
2022/05/26 04:44:26;;;;;;;0.00;0.00;;;17.90;80.10;;;;;;4119302;28;20100;-71
2022/05/26 04:46:53;;;;;;;0.00;0.00;;;17.90;79.90;;;;;;4119065;28;20050;-71
2022/05/26 04:49:17;;;;;;;0.00;0.00;;;17.80;79.80;;;;;;4133245;28;20128;-70
2022/05/26 04:51:39;;;;;;;0.00;0.00;;;17.90;79.80;;;;;;4118812;28;20046;-71
2022/05/26 04:54:06;;;;;;;0.00;0.00;;;17.90;79.70;;;;;;4106009;28;20206;-72
2022/05/26 04:56:30;;;;;;;0.00;0.00;;;17.90;79.60;;;;;;4132334;28;20066;-70
2022/05/26 04:58:53;;;;;;;0.00;0.00;;;18.00;79.60;;;;;;4119386;28;20092;-71
2022/05/26 05:01:17;;;;;;;0.00;0.00;;;18.00;79.60;;;;;;4119074;28;20436;-72
2022/05/26 05:03:40;;;;;;;0.00;0.00;;;18.00;79.70;;;;;;4119279;28;20055;-70
2022/05/26 05:06:02;;;;;;;0.00;0.00;;;18.00;79.80;;;;;;4107211;28;20121;-71
2022/05/26 05:08:24;;;;;;;0.00;0.00;;;18.00;80.10;;;;;;4130785;28;20435;-70
2022/05/26 05:10:46;;;;;;;0.00;0.00;;;18.10;80.30;;;;;;4132538;28;20129;-71
2022/05/26 05:13:10;;;;;;;0.00;0.00;;;18.00;80.70;;;;;;4112847;28;20042;-72
2022/05/26 05:15:44;;;;;;;0.00;0.00;;;18.00;80.60;;;;;;4120988;28;20055;-73
2022/05/26 05:18:08;;;;;;;0.00;0.00;;;18.00;80.80;;;;;;4134394;28;20046;-71
2022/05/26 05:20:39;;;;;;;0.00;0.00;;;18.00;81.20;;;;;;4134784;28;20096;-70
2022/05/26 05:23:11;;;;;;;0.00;0.00;;;18.00;81.10;;;;;;4118718;28;20046;-70
2022/05/26 05:25:39;;;;;;;0.00;0.00;;;18.00;80.50;;;;;;4105383;28;20146;-71
2022/05/26 05:28:29;;;;;;;0.00;0.00;;;18.10;80.20;;;;;;4189829;28;20748;-70
2022/05/26 05:31:16;;;;;;;0.00;0.00;;;18.10;80.00;;;;;;4118312;28;20051;-72
2022/05/26 05:33:54;;;;;;;0.00;0.00;;;18.20;79.90;;;;;;4118846;28;20054;-70
2022/05/26 05:36:27;;;;;;;0.00;0.00;;;18.20;79.90;;;;;;4118293;28;20047;-73
2022/05/26 05:38:49;;;;;;;0.00;0.00;;;18.30;79.90;;;;;;4123427;28;20039;-71
2022/05/26 05:41:14;;;;;;;0.00;0.00;;;18.30;80.20;;;;;;4118226;28;20057;-70
2022/05/26 05:43:42;;;;;;;0.00;0.00;;;18.30;79.30;;;;;;4132193;28;20051;-74
2022/05/26 05:46:06;;;;;;;0.00;0.00;;;18.20;78.30;;;;;;4104705;28;20051;-72
2022/05/26 05:48:34;;;;;;;0.00;0.00;;;18.10;78.00;;;;;;4131845;28;20050;-74
2022/05/26 05:50:58;;;;;;;0.00;0.00;;;18.00;77.90;;;;;;4131319;28;20039;-71
2022/05/26 05:53:26;;;;;;;0.00;0.00;;;18.00;77.90;;;;;;4117965;28;20054;-71
2022/05/26 05:55:48;;;;;;;0.00;0.00;;;18.10;77.90;;;;;;4145503;28;20065;-70
2022/05/26 05:58:12;;;;;;;0.00;0.00;;;18.20;77.60;;;;;;4091606;28;20052;-72
2022/05/26 06:00:38;;;;;;;0.00;0.00;;;18.30;77.40;;;;;;4131397;28;20065;-71
2022/05/26 06:03:03;;;;;;;0.00;0.00;;;18.30;77.10;;;;;;4118016;28;20370;-71
2022/05/26 06:05:28;;;;;;;0.00;0.00;;;18.20;77.10;;;;;;4129558;28;20033;-70
2022/05/26 06:07:55;;;;;;;0.00;0.00;;;18.20;77.20;;;;;;4150314;28;20053;-69
2022/05/26 06:10:22;;;;;;;0.00;0.00;;;18.20;77.20;;;;;;4136815;28;20126;-72
2022/05/26 06:12:47;;;;;;;0.00;0.00;;;18.20;76.90;;;;;;4143936;28;20515;-70
2022/05/26 06:15:13;;;;;;;0.00;0.00;;;18.30;76.20;;;;;;4176714;28;20051;-70
2022/05/26 06:17:42;;;;;;;0.00;0.00;;;18.40;76.10;;;;;;4119630;28;20313;-70
2022/05/26 06:20:09;;;;;;;0.00;0.00;;;18.40;75.40;;;;;;4117807;28;20054;-71
2022/05/26 06:22:35;;;;;;;0.00;0.00;;;18.50;75.40;;;;;;4145275;28;20102;-71
2022/05/26 06:25:00;;;;;;;0.00;0.00;;;18.50;74.70;;;;;;4145111;28;20056;-70
2022/05/26 06:30:08;;;;;;;0.00;0.00;;;18.70;75.00;;;;;;4104469;28;20051;-69
2022/05/26 06:38:07;;;;;;;0.00;0.00;;;18.70;76.40;;;;;;4117804;28;20118;-70
2022/05/26 06:40:31;;;;;;;0.00;0.00;;;18.60;77.10;;;;;;4117404;28;20070;-68
2022/05/26 06:42:56;;;;;;;0.00;0.00;;;18.60;77.90;;;;;;4150259;28;20079;-71
2022/05/26 06:45:23;;;;;;;0.00;0.00;;;18.80;77.90;;;;;;4149619;28;20132;-70
2022/05/26 06:47:50;;;;;;;0.00;0.00;;;18.80;77.80;;;;;;4136084;28;20107;-71
2022/05/26 06:50:14;;;;;;;0.00;0.00;;;18.90;77.90;;;;;;4136183;28;20046;-71
2022/05/26 06:52:37;;;;;;;0.00;0.00;;;19.00;77.30;;;;;;4149498;28;20054;-72
2022/05/26 06:55:03;;;;;;;0.00;0.00;;;19.10;76.90;;;;;;4149924;28;20368;-71
2022/05/26 06:57:25;;;;;;;0.00;0.00;;;19.30;76.80;;;;;;4135876;28;20069;-71
2022/05/26 06:59:49;;;;;;;0.00;0.00;;;19.30;75.80;;;;;;4149845;28;20066;-68
2022/05/26 07:02:15;;;;;;;0.00;0.00;;;19.20;75.30;;;;;;4162742;28;20166;-71
2022/05/26 07:04:42;;;;;;;0.00;0.00;;;19.10;75.70;;;;;;4122344;28;20768;-71
2022/05/26 07:07:07;;;;;;;0.00;0.00;;;19.10;76.00;;;;;;4132879;28;20042;-71
2022/05/26 07:09:31;;;;;;;0.00;0.00;;;19.10;76.20;;;;;;4147110;28;20065;-70
2022/05/26 07:11:55;;;;;;;0.00;0.00;;;19.20;76.20;;;;;;4133543;28;20038;-70
2022/05/26 07:14:20;;;;;;;0.00;0.00;;;19.20;74.60;;;;;;4130429;28;20046;-73
2022/05/26 07:16:44;;;;;;;0.00;0.00;;;19.10;72.80;;;;;;4117024;28;20121;-74
2022/05/26 07:19:07;;;;;;;0.00;0.00;;;19.00;72.00;;;;;;4116320;28;20043;-71
2022/05/26 07:21:31;;;;;;;0.00;0.00;;;19.20;71.60;;;;;;4103445;28;20054;-72
2022/05/26 07:23:53;;;;;;;0.00;0.00;;;19.40;70.50;;;;;;4103706;28;20047;-74
2022/05/26 07:26:18;;;;;;;0.00;0.00;;;19.50;69.90;;;;;;4103955;28;20062;-71
2022/05/26 07:28:43;;;;;;;0.00;0.00;;;19.70;69.40;;;;;;4103840;28;20066;-70
2022/05/26 07:31:11;;;;;;;0.00;0.00;;;19.70;69.00;;;;;;4117095;28;20062;-71
2022/05/26 07:33:36;;;;;;;0.00;0.00;;;19.70;69.10;;;;;;4117177;28;20108;-72
2022/05/26 07:36:00;;;;;;;0.00;0.00;;;19.80;68.70;;;;;;4104118;28;20047;-71
2022/05/26 07:41:18;;;;;;;0.00;0.00;;;20.10;68.60;;;;;;4117142;28;20097;-70
2022/05/26 07:43:41;;;;;;;0.00;0.00;;;20.10;69.30;;;;;;4117012;28;20153;-73
2022/05/26 07:46:08;;;;;;;0.00;0.00;;;20.10;69.60;;;;;;4130909;28;20445;-71
2022/05/26 07:48:32;;;;;;;0.00;0.00;;;20.20;69.70;;;;;;4116943;28;20535;-74
2022/05/26 07:50:59;;;;;;;0.00;0.00;;;20.40;68.10;;;;;;4117085;28;20094;-72
2022/05/26 07:53:23;;;;;;;0.00;0.00;;;20.50;67.20;;;;;;4106912;28;20055;-72
2022/05/26 07:55:48;;;;;;;0.00;0.00;;;20.60;64.90;;;;;;4130483;28;20050;-74
2022/05/26 07:58:13;;;;;;;0.00;0.00;;;20.70;64.10;;;;;;4090196;28;20043;-72
2022/05/26 08:00:36;;;;;;;0.00;0.00;;;20.70;63.60;;;;;;4103140;28;20138;-71
2022/05/26 08:02:58;;;;;;;0.00;0.00;;;20.70;62.30;;;;;;4103482;28;20058;-70
2022/05/26 08:05:22;;;;;;;0.00;0.00;;;20.70;62.50;;;;;;4116581;28;20043;-71
2022/05/26 08:07:44;;;;;;;0.00;0.00;;;20.60;62.80;;;;;;4118303;28;20093;-72
2022/05/26 08:10:10;;;;;;;0.00;0.00;;;20.60;61.80;;;;;;4147167;28;20067;-71
2022/05/26 08:12:34;;;;;;;0.00;0.00;;;20.60;62.80;;;;;;4104479;28;20055;-72
2022/05/26 08:15:01;;;;;;;0.00;0.00;;;20.80;63.00;;;;;;4090209;28;20055;-70
2022/05/26 08:17:23;;;;;;;0.00;0.00;;;21.00;62.70;;;;;;4089875;28;20127;-70
2022/05/26 08:19:45;;;;;;;0.00;0.00;;;21.30;62.70;;;;;;4116668;28;20097;-70
2022/05/26 08:22:07;;;;;;;0.00;0.00;;;21.30;62.30;;;;;;4117921;28;20137;-71
2022/05/26 08:24:34;;;;;;;0.00;0.00;;;21.50;61.80;;;;;;4103222;28;20066;-69
2022/05/26 08:26:59;;;;;;;0.00;0.00;;;21.50;61.00;;;;;;4116744;28;20085;-71
2022/05/26 08:29:26;;;;;;;0.00;0.00;;;21.60;60.90;;;;;;4116898;28;20054;-70
2022/05/26 08:31:48;;;;;;;0.00;0.00;;;21.50;61.00;;;;;;4116516;28;20051;-71
2022/05/26 08:34:13;;;;;;;0.00;0.00;;;21.40;61.50;;;;;;4117455;28;20042;-69
2022/05/26 08:36:38;;;;;;;0.00;0.00;;;21.70;60.20;;;;;;4120748;28;20053;-68
2022/05/26 08:39:08;;;;;;;0.00;0.00;;;21.60;60.10;;;;;;4094035;28;20063;-70
2022/05/26 08:41:40;;;;;;;0.00;0.00;;;21.60;59.90;;;;;;4107774;28;20062;-70
2022/05/26 08:44:36;;;;;;;0.00;0.00;;;21.80;60.50;;;;;;4120373;28;20058;-68
2022/05/26 08:47:20;;;;;;;0.00;0.00;;;21.70;61.10;;;;;;4105006;28;20428;-69
2022/05/26 08:49:51;;;;;;;0.00;0.00;;;21.90;60.70;;;;;;4133076;28;20109;-72
2022/05/26 08:52:30;;;;;;;0.00;0.00;;;21.90;60.60;;;;;;4116999;28;20117;-72
2022/05/26 08:55:17;;;;;;;0.00;0.00;;;21.80;60.90;;;;;;4143919;28;20042;-70
2022/05/26 08:57:45;;;;;;;0.00;0.00;;;21.90;60.90;;;;;;4103340;28;20119;-69
2022/05/26 09:00:18;;;;;;;0.00;0.00;;;22.10;60.80;;;;;;4115889;28;20097;-71
2022/05/26 09:02:43;;;;;;;0.00;0.00;;;22.20;59.70;;;;;;4102608;28;20108;-72
2022/05/26 09:05:13;;;;;;;0.00;0.00;;;22.10;59.00;;;;;;4119281;28;20054;-71
2022/05/26 09:13:26;;;;;;;0.00;0.00;;;22.40;60.00;;;;;;4119031;28;20054;-72
2022/05/26 09:15:48;;;;;;;0.00;0.00;;;22.60;60.40;;;;;;4106201;28;20051;-72
2022/05/26 09:18:20;;;;;;;0.00;0.00;;;22.70;58.70;;;;;;4133453;28;20052;-72
2022/05/26 09:20:46;;;;;;;0.00;0.00;;;22.70;58.70;;;;;;4118931;28;20073;-69
2022/05/26 09:23:16;;;;;;;0.00;0.00;;;22.70;58.40;;;;;;4102613;28;20116;-73
2022/05/26 09:25:47;;;;;;;0.00;0.00;;;22.70;58.80;;;;;;4089942;28;20075;-71
2022/05/26 09:28:10;;;;;;;0.00;0.00;;;22.60;59.50;;;;;;4119292;28;20093;-73
2022/05/26 09:30:33;;;;;;;0.00;0.00;;;22.60;59.20;;;;;;4133420;28;20062;-73
2022/05/26 09:32:56;;;;;;;0.00;0.00;;;22.60;59.50;;;;;;4175269;28;20071;-70
2022/05/26 09:35:25;;;;;;;0.00;0.00;;;22.50;59.80;;;;;;4118695;28;20058;-69
2022/05/26 09:37:51;;;;;;;0.00;0.00;;;22.50;59.50;;;;;;4118532;28;20120;-73
2022/05/26 09:40:20;;;;;;;0.00;0.00;;;22.70;59.40;;;;;;4132013;28;20045;-72
2022/05/26 09:42:46;;;;;;;0.00;0.00;;;22.80;59.20;;;;;;4105337;28;20362;-70
2022/05/26 09:45:14;;;;;;;0.00;0.00;;;22.80;59.00;;;;;;4132258;28;20091;-70
2022/05/26 09:47:59;;;;;;;0.00;0.00;;;22.90;59.60;;;;;;4118143;28;20133;-72
2022/05/26 09:50:33;;;;;;;0.00;0.00;;;22.90;58.90;;;;;;4118431;28;20100;-71
2022/05/26 09:52:58;;;;;;;0.00;0.00;;;23.00;59.10;;;;;;4118000;28;20069;-70
2022/05/26 09:55:27;;;;;;;0.00;0.00;;;23.10;58.70;;;;;;4118537;28;20046;-73
2022/05/26 09:58:13;;;;;;;0.00;0.00;;;23.00;57.90;;;;;;4104761;28;20058;-71
2022/05/26 10:00:42;;;;;;;0.00;0.00;;;22.90;58.40;;;;;;4104987;28;20116;-71
2022/05/26 10:03:40;;;;;;;0.00;0.00;;;22.80;58.50;;;;;;4131947;28;20326;-72
2022/05/26 10:06:20;;;;;;;0.00;0.00;;;22.70;58.20;;;;;;4118654;28;20051;-70
2022/05/26 10:09:20;;;;;;;0.00;0.00;;;22.70;58.10;;;;;;4105072;28;20137;-71
2022/05/26 10:11:45;;;;;;;0.00;0.00;;;22.80;57.80;;;;;;4104681;28;20055;-69
2022/05/26 10:14:22;;;;;;;0.00;0.00;;;22.80;58.40;;;;;;4104864;28;20386;-70
2022/05/26 10:16:57;;;;;;;0.00;0.00;;;22.90;58.20;;;;;;4118357;28;20125;-69
2022/05/26 10:19:33;;;;;;;0.00;0.00;;;23.00;57.80;;;;;;4104540;28;20108;-71
2022/05/26 10:22:19;;;;;;;0.00;0.00;;;23.10;57.40;;;;;;4118037;28;20050;-72
2022/05/26 10:24:59;;;;;;;0.00;0.00;;;23.20;57.40;;;;;;4104173;28;20055;-73
2022/05/26 10:27:49;;;;;;;0.00;0.00;;;23.20;56.80;;;;;;4105174;28;20096;-72
2022/05/26 10:30:39;;;;;;;0.00;0.00;;;23.20;56.80;;;;;;4117966;28;20423;-73
2022/05/26 10:33:27;;;;;;;0.00;0.00;;;23.30;56.50;;;;;;4104267;28;20489;-70
2022/05/26 10:35:58;;;;;;;0.00;0.00;;;23.10;56.70;;;;;;4144979;28;20091;-71
2022/05/26 10:38:20;;;;;;;0.00;0.00;;;23.10;57.60;;;;;;4103218;28;20059;-70
2022/05/26 10:40:52;;;;;;;0.00;0.00;;;23.20;58.40;;;;;;4091014;28;20043;-71
2022/05/26 10:43:35;;;;;;;0.00;0.00;;;23.20;57.60;;;;;;4117503;28;20051;-73
2022/05/26 10:46:03;;;;;;;0.00;0.00;;;23.20;57.20;;;;;;4118101;28;20081;-70
2022/05/26 10:49:03;;;;;;;0.00;0.00;;;23.10;57.70;;;;;;4104348;28;20058;-71
2022/05/26 10:51:37;;;;;;;0.00;0.00;;;23.20;58.50;;;;;;4117703;28;20146;-72
2022/05/26 10:54:07;;;;;;;0.00;0.00;;;23.40;58.80;;;;;;4117782;28;20469;-72
2022/05/26 10:56:58;;;;;;;0.00;0.00;;;23.40;57.30;;;;;;4117775;28;20054;-72
2022/05/26 10:59:40;;;;;;;0.00;0.00;;;23.30;56.10;;;;;;4117309;28;20039;-71
2022/05/26 11:02:24;;;;;;;0.00;0.00;;;23.30;56.40;;;;;;4139091;28;20058;-69
2022/05/26 11:05:05;;;;;;;0.00;0.00;;;23.20;57.60;;;;;;4117249;28;20070;-71
2022/05/26 11:07:54;;;;;;;0.00;0.00;;;23.20;56.30;;;;;;4103985;28;20120;-72
2022/05/26 11:10:38;;;;;;;0.00;0.00;;;23.20;57.50;;;;;;4103710;28;20090;-74
2022/05/26 11:13:16;;;;;;;0.00;0.00;;;23.20;57.20;;;;;;4104378;28;20039;-73
2022/05/26 11:18:42;;;;;;;0.00;0.00;;;23.40;57.70;;;;;;4130887;28;20054;-71
2022/05/26 11:21:04;;;;;;;0.00;0.00;;;23.50;57.30;;;;;;4104242;28;20073;-70
2022/05/26 11:23:35;;;;;;;0.00;0.00;;;23.60;56.90;;;;;;4117288;28;20051;-73
2022/05/26 11:26:32;;;;;;;0.00;0.00;;;23.60;56.60;;;;;;4103643;28;20051;-73
2022/05/26 11:29:05;;;;;;;0.00;0.00;;;23.70;56.80;;;;;;4117118;28;20092;-71
2022/05/26 11:37:27;;;;;;;0.00;0.00;;;23.70;56.50;;;;;;4147583;28;20116;-71
2022/05/26 11:39:56;;;;;;;0.00;0.00;;;23.70;57.00;;;;;;4117108;28;20465;-70
2022/05/26 11:42:47;;;;;;;0.00;0.00;;;23.80;57.40;;;;;;4117320;28;20043;-71
2022/05/26 11:45:29;;;;;;;0.00;0.00;;;23.80;57.70;;;;;;4116979;28;20126;-70
2022/05/26 11:48:04;;;;;;;0.00;0.00;;;23.80;57.10;;;;;;4116918;28;20046;-71
2022/05/26 11:50:50;;;;;;;0.00;0.00;;;23.80;56.90;;;;;;4130707;28;20393;-73
2022/05/26 11:53:40;;;;;;;0.00;0.00;;;23.90;56.70;;;;;;4116741;28;20055;-71
2022/05/26 11:56:24;;;;;;;0.00;0.00;;;23.80;56.60;;;;;;4130087;28;20062;-72
2022/05/26 11:59:08;;;;;;;0.00;0.00;;;23.90;56.40;;;;;;4103735;28;20112;-71
2022/05/26 12:01:30;;;;;;;0.00;0.00;;;23.70;56.60;;;;;;4116889;28;20490;-73
2022/05/26 12:04:05;;;;;;;0.00;0.00;;;23.80;57.60;;;;;;4116976;28;20100;-71
2022/05/26 12:06:38;;;;;;;0.00;0.00;;;23.80;56.60;;;;;;4103436;28;20381;-70
2022/05/26 12:09:03;;;;;;;0.00;0.00;;;23.90;56.20;;;;;;4103497;28;20059;-74
2022/05/26 12:11:47;;;;;;;0.00;0.00;;;24.00;56.30;;;;;;4117049;28;20058;-73
2022/05/26 12:14:23;;;;;;;0.00;0.00;;;24.00;56.60;;;;;;4103400;28;20077;-71
2022/05/26 12:16:50;;;;;;;0.00;0.00;;;23.90;55.80;;;;;;4103079;28;20043;-71
2022/05/26 12:19:32;;;;;;;0.00;0.00;;;23.90;56.60;;;;;;4103689;28;20047;-73
2022/05/26 12:22:32;;;;;;;0.00;0.00;;;23.90;56.70;;;;;;4103048;28;20047;-73
2022/05/26 12:24:58;;;;;;;0.00;0.00;;;24.00;55.50;;;;;;4116775;28;20132;-69
2022/05/26 12:27:58;;;;;;;0.00;0.00;;;24.10;56.00;;;;;;4116384;28;20050;-72
2022/05/26 12:30:48;;;;;;;0.00;0.00;;;24.10;55.70;;;;;;4143719;28;20054;-72
2022/05/26 12:33:16;;;;;;;0.00;0.00;;;24.20;55.80;;;;;;4129992;28;20400;-73
2022/05/26 12:35:48;;;;;;;0.00;0.00;;;24.20;55.80;;;;;;4103164;28;20096;-70
2022/05/26 12:38:25;;;;;;;0.00;0.00;;;24.20;55.00;;;;;;4130156;28;20062;-70
2022/05/26 12:41:01;;;;;;;0.00;0.00;;;24.30;55.10;;;;;;4116259;28;20116;-71
2022/05/26 12:43:32;;;;;;;0.00;0.00;;;24.20;54.30;;;;;;4116181;28;20051;-70
2022/05/26 12:46:07;;;;;;;0.00;0.00;;;24.20;54.90;;;;;;4116778;28;20134;-71
2022/05/26 12:48:48;;;;;;;0.00;0.00;;;24.30;55.70;;;;;;4102973;28;20092;-72
2022/05/26 12:51:11;;;;;;;;;;;24.50;55.10;;;;;;4103397;28;20051;-71
2022/05/26 12:53:36;;;;;;;0.00;0.00;;;24.40;54.80;;;;;;4183081;28;20367;-72
2022/05/26 12:56:19;;;;;;;0.00;0.00;;;24.40;53.60;;;;;;4169813;28;20049;-74
2022/05/26 12:58:54;;;;;;;0.00;0.00;;;24.50;54.20;;;;;;4183956;28;20049;-73
2022/05/26 13:01:21;;;;;;;0.00;0.00;;;24.60;54.80;;;;;;4184771;28;20361;-72
2022/05/26 13:03:58;;;;;;;0.00;0.00;;;24.70;53.90;;;;;;4172586;28;20124;-72
2022/05/26 13:06:22;;;;;;;0.00;0.00;;;24.70;53.90;;;;;;4173347;28;20048;-73
2022/05/26 13:08:52;;;;;;;0.00;0.00;;;24.70;53.60;;;;;;4172991;28;20049;-70
2022/05/26 13:11:32;;;;;;;0.00;0.00;;;24.60;53.60;;;;;;4186275;28;20057;-71
2022/05/26 13:14:08;;;;;;;0.00;0.00;;;24.50;52.90;;;;;;4114622;28;20299;-73
2022/05/26 13:16:34;;;;;;;0.00;0.00;;;24.50;53.00;;;;;;4186814;28;20384;-72
2022/05/26 13:19:15;;;;;;;0.00;0.00;;;24.60;53.10;;;;;;4186664;28;20041;-71
2022/05/26 13:21:38;;;;;;;0.00;0.00;;;24.60;53.10;;;;;;4172768;28;20038;-72
2022/05/26 13:24:00;;;;;;;0.00;0.00;;;24.50;52.50;;;;;;4172349;28;20077;-72
2022/05/26 13:26:23;;;;;;;0.00;0.00;;;24.50;52.80;;;;;;4186249;28;20057;-72
2022/05/26 13:28:58;;;;;;;0.00;0.00;;;24.60;52.70;;;;;;4186463;28;20052;-72
2022/05/26 13:34:06;;;;;;;0.00;0.00;;;24.70;52.60;;;;;;4114723;28;20051;-72
2022/05/26 13:36:44;;;;;;;0.00;0.00;;;24.60;52.50;;;;;;4185976;28;20052;-72
2022/05/26 13:39:09;;;;;;;0.00;0.00;;;24.60;52.50;;;;;;4200620;28;20143;-74
2022/05/26 13:41:38;;;;;;;0.00;0.00;;;24.60;52.20;;;;;;4172829;28;20129;-70
2022/05/26 13:44:04;;;;;;;0.00;0.00;;;24.60;51.70;;;;;;4185838;28;20073;-69